PWSweather.com
Personal Weather Stations
Station Observations
CW4114
Near Downtown, Rogers City, MI 49779

Near DowntownRogers City, MI 49779

Lat: 45.417443, Lon: -83.810642

Elevation: 605

Station Type: Davis Vantage Pro2 w/Solar

Latest ConditionsUpdated 8:01:50 PM EDT Saturday, May 28, 2016
Currently Today's Max Today's Min Today's Average
Temperature 82.6°F28.1°C 86.4°F30.2°C 56.3°F13.5°C 70.7°F21.5°C
Dew Point 64.2°F17.9°C 70.3°F21.3°C 54.9°F12.7°C 62.5°F16.9°C
Winds 4.7 mph WSW7.6 kmh WSW 11.6 mph SW18.7 kmh SW - 3.5 mph 5.6 kmh
Wind Gusts 8.5 mph13.7 kmh 24.4 mph39.3 kmh - -
Humidity 54% 99% 48% 78%
Pressure 29.89 in1012.2 mb 29.96 in1014.6 mb 29.88 in1011.9 mb -
Precipitation - 0.04 in1.0 mm - -
Hour Temp Dew Point Humidity Winds Wind Gusts Pressure Precip Precip Rate Daily Precip Total
08:01 PM 82.6°F28.1°C 64.2°F17.9°C 54% 4.7 mph WSW7.6 kmh WSW 8.5 mph13.7 kmh 29.89 in1012.2 mb 0.00 in0.0 mm 0.00 in0.0 mm 0.04 in1.0 mm
07:56 PM 82.6°F28.1°C 64.2°F17.9°C 54% 4.3 mph WSW6.9 kmh WSW 8.5 mph13.7 kmh 29.88 in1011.9 mb 0.00 in0.0 mm 0.00 in0.0 mm 0.04 in1.0 mm
07:51 PM 82.8°F28.2°C 64.4°F18.0°C 54% 4.0 mph WSW6.4 kmh WSW 7.4 mph11.9 kmh 29.88 in1011.9 mb 0.00 in0.0 mm 0.00 in0.0 mm 0.04 in1.0 mm
07:46 PM 82.9°F28.3°C 64.6°F18.1°C 54% 3.8 mph W6.1 kmh W 8.5 mph13.7 kmh 29.88 in1011.9 mb 0.00 in0.0 mm 0.00 in0.0 mm 0.04 in1.0 mm
07:41 PM 83.1°F28.4°C 63.7°F17.6°C 52% 5.6 mph WSW9.0 kmh WSW 11.6 mph18.7 kmh 29.88 in1011.9 mb 0.00 in0.0 mm 0.00 in0.0 mm 0.04 in1.0 mm
07:36 PM 83.5°F28.6°C 64.0°F17.8°C 52% 2.9 mph WSW4.7 kmh WSW 7.4 mph11.9 kmh 29.88 in1011.9 mb 0.00 in0.0 mm 0.00 in0.0 mm 0.04 in1.0 mm
07:31 PM 83.7°F28.7°C 64.2°F17.9°C 52% 3.8 mph SW6.1 kmh SW 12.8 mph20.6 kmh 29.88 in1011.9 mb 0.00 in0.0 mm 0.00 in0.0 mm 0.04 in1.0 mm
07:26 PM 83.8°F28.8°C 63.9°F17.7°C 51% 4.5 mph WSW7.2 kmh WSW 13.9 mph22.4 kmh 29.88 in1011.9 mb 0.00 in0.0 mm 0.00 in0.0 mm 0.04 in1.0 mm
07:21 PM 84.0°F28.9°C 63.9°F17.7°C 51% 5.6 mph WNW9.0 kmh WNW 10.5 mph16.9 kmh 29.88 in1011.9 mb 0.00 in0.0 mm 0.00 in0.0 mm 0.04 in1.0 mm
07:16 PM 83.8°F28.8°C 63.9°F17.7°C 51% 4.9 mph WSW7.9 kmh WSW 9.6 mph15.4 kmh 29.88 in1011.9 mb 0.00 in0.0 mm 0.00 in0.0 mm 0.04 in1.0 mm
07:11 PM 84.0°F28.9°C 63.3°F17.4°C 50% 7.6 mph SW12.2 kmh SW 12.8 mph20.6 kmh 29.88 in1011.9 mb 0.00 in0.0 mm 0.00 in0.0 mm 0.04 in1.0 mm
07:06 PM 84.2°F29.0°C 63.0°F17.2°C 49% 8.7 mph SW14.0 kmh SW 15.9 mph25.6 kmh 29.88 in1011.9 mb 0.00 in0.0 mm 0.00 in0.0 mm 0.04 in1.0 mm
07:01 PM 84.7°F29.3°C 64.0°F17.8°C 50% 5.1 mph SSE8.2 kmh SSE 13.9 mph22.4 kmh 29.88 in1011.9 mb 0.00 in0.0 mm 0.00 in0.0 mm 0.04 in1.0 mm
06:56 PM 85.5°F29.7°C 63.5°F17.5°C 48% 7.8 mph WSW12.6 kmh WSW 12.8 mph20.6 kmh 29.88 in1011.9 mb 0.00 in0.0 mm 0.00 in0.0 mm 0.04 in1.0 mm
06:51 PM 85.8°F29.9°C 63.9°F17.7°C 48% 3.1 mph SW5.0 kmh SW 9.6 mph15.4 kmh 29.88 in1011.9 mb 0.00 in0.0 mm 0.00 in0.0 mm 0.04 in1.0 mm
06:46 PM 86.0°F30.0°C 64.0°F17.8°C 48% 4.0 mph SW6.4 kmh SW 13.9 mph22.4 kmh 29.88 in1011.9 mb 0.00 in0.0 mm 0.00 in0.0 mm 0.04 in1.0 mm
06:41 PM 85.8°F29.9°C 64.4°F18.0°C 49% 4.7 mph SW7.6 kmh SW 10.5 mph16.9 kmh 29.88 in1011.9 mb 0.00 in0.0 mm 0.00 in0.0 mm 0.04 in1.0 mm
06:36 PM 86.2°F30.1°C 64.2°F17.9°C 48% 4.3 mph WSW6.9 kmh WSW 9.6 mph15.4 kmh 29.88 in1011.9 mb 0.00 in0.0 mm 0.00 in0.0 mm 0.04 in1.0 mm
06:31 PM 86.0°F30.0°C 64.6°F18.1°C 49% 2.2 mph WSW3.5 kmh WSW 5.4 mph8.7 kmh 29.88 in1011.9 mb 0.00 in0.0 mm 0.00 in0.0 mm 0.04 in1.0 mm
06:26 PM 85.6°F29.8°C 64.2°F17.9°C 49% 5.1 mph W8.2 kmh W 9.6 mph15.4 kmh 29.88 in1011.9 mb 0.00 in0.0 mm 0.00 in0.0 mm 0.04 in1.0 mm
06:21 PM 85.5°F29.7°C 64.0°F17.8°C 49% 5.8 mph WSW9.3 kmh WSW 11.6 mph18.7 kmh 29.89 in1012.2 mb 0.00 in0.0 mm 0.00 in0.0 mm 0.04 in1.0 mm
06:16 PM 84.9°F29.4°C 63.7°F17.6°C 49% 6.3 mph SW10.1 kmh SW 12.8 mph20.6 kmh 29.89 in1012.2 mb 0.00 in0.0 mm 0.00 in0.0 mm 0.04 in1.0 mm
06:11 PM 85.3°F29.6°C 64.6°F18.1°C 50% 7.6 mph SSW12.2 kmh SSW 11.6 mph18.7 kmh 29.89 in1012.2 mb 0.00 in0.0 mm 0.00 in0.0 mm 0.04 in1.0 mm
06:06 PM 85.6°F29.8°C 64.9°F18.3°C 50% 6.0 mph SSW9.7 kmh SSW 13.9 mph22.4 kmh 29.89 in1012.2 mb 0.00 in0.0 mm 0.00 in0.0 mm 0.04 in1.0 mm
06:01 PM 86.2°F30.1°C 66.6°F19.2°C 52% 4.7 mph WSW7.6 kmh WSW 9.6 mph15.4 kmh 29.89 in1012.2 mb 0.00 in0.0 mm 0.00 in0.0 mm 0.04 in1.0 mm
05:56 PM 85.6°F29.8°C 64.2°F17.9°C 49% 8.3 mph SW13.4 kmh SW 13.9 mph22.4 kmh 29.89 in1012.2 mb 0.00 in0.0 mm 0.00 in0.0 mm 0.04 in1.0 mm
05:51 PM 85.5°F29.7°C 64.8°F18.2°C 50% 5.4 mph WSW8.7 kmh WSW 9.6 mph15.4 kmh 29.89 in1012.2 mb 0.00 in0.0 mm 0.00 in0.0 mm 0.04 in1.0 mm
05:46 PM 84.9°F29.4°C 64.8°F18.2°C 51% 3.6 mph W5.8 kmh W 15.9 mph25.6 kmh 29.89 in1012.2 mb 0.00 in0.0 mm 0.00 in0.0 mm 0.04 in1.0 mm
05:41 PM 84.7°F29.3°C 64.6°F18.1°C 51% 4.5 mph WNW7.2 kmh WNW 11.6 mph18.7 kmh 29.89 in1012.2 mb 0.00 in0.0 mm 0.00 in0.0 mm 0.04 in1.0 mm
05:36 PM 84.4°F29.1°C 64.2°F17.9°C 51% 4.5 mph SW7.2 kmh SW 13.9 mph22.4 kmh 29.89 in1012.2 mb 0.00 in0.0 mm 0.00 in0.0 mm 0.04 in1.0 mm
05:31 PM 84.7°F29.3°C 64.6°F18.1°C 51% 9.8 mph WSW15.8 kmh WSW 15.9 mph25.6 kmh 29.89 in1012.2 mb 0.00 in0.0 mm 0.00 in0.0 mm 0.04 in1.0 mm
05:26 PM 84.9°F29.4°C 64.2°F17.9°C 50% 8.9 mph SW14.3 kmh SW 19.0 mph30.6 kmh 29.89 in1012.2 mb 0.00 in0.0 mm 0.00 in0.0 mm 0.04 in1.0 mm
05:21 PM 85.3°F29.6°C 64.0°F17.8°C 49% 6.5 mph WSW10.5 kmh WSW 14.8 mph23.8 kmh 29.89 in1012.2 mb 0.00 in0.0 mm 0.00 in0.0 mm 0.04 in1.0 mm
05:16 PM 85.5°F29.7°C 66.9°F19.4°C 54% 6.3 mph SW10.1 kmh SW 15.9 mph25.6 kmh 29.89 in1012.2 mb 0.00 in0.0 mm 0.00 in0.0 mm 0.04 in1.0 mm
05:11 PM 85.3°F29.6°C 66.2°F19.0°C 53% 4.3 mph W6.9 kmh W 11.6 mph18.7 kmh 29.88 in1011.9 mb 0.00 in0.0 mm 0.00 in0.0 mm 0.04 in1.0 mm
05:06 PM 85.3°F29.6°C 66.7°F19.3°C 54% 2.7 mph S4.3 kmh S 9.6 mph15.4 kmh 29.89 in1012.2 mb 0.00 in0.0 mm 0.00 in0.0 mm 0.04 in1.0 mm
05:01 PM 84.4°F29.1°C 66.9°F19.4°C 56% 2.9 mph SW4.7 kmh SW 12.8 mph20.6 kmh 29.89 in1012.2 mb 0.00 in0.0 mm 0.00 in0.0 mm 0.04 in1.0 mm
04:56 PM 83.8°F28.8°C 65.5°F18.6°C 54% 6.3 mph SSW10.1 kmh SSW 13.9 mph22.4 kmh 29.89 in1012.2 mb 0.00 in0.0 mm 0.00 in0.0 mm 0.04 in1.0 mm
04:51 PM 83.7°F28.7°C 65.8°F18.8°C 55% 4.9 mph SW7.9 kmh SW 13.9 mph22.4 kmh 29.89 in1012.2 mb 0.00 in0.0 mm 0.00 in0.0 mm 0.04 in1.0 mm
04:46 PM 83.5°F28.6°C 65.7°F18.7°C 55% 6.0 mph SE9.7 kmh SE 14.8 mph23.8 kmh 29.89 in1012.2 mb 0.00 in0.0 mm 0.00 in0.0 mm 0.04 in1.0 mm
04:41 PM 84.4°F29.1°C 66.9°F19.4°C 56% 2.7 mph SSE4.3 kmh SSE 13.9 mph22.4 kmh 29.89 in1012.2 mb 0.00 in0.0 mm 0.00 in0.0 mm 0.04 in1.0 mm
04:36 PM 84.9°F29.4°C 65.3°F18.5°C 52% 6.9 mph SW11.1 kmh SW 12.8 mph20.6 kmh 29.89 in1012.2 mb 0.00 in0.0 mm 0.00 in0.0 mm 0.04 in1.0 mm
04:31 PM 85.6°F29.8°C 64.9°F18.3°C 50% 5.1 mph WSW8.2 kmh WSW 13.9 mph22.4 kmh 29.89 in1012.2 mb 0.00 in0.0 mm 0.00 in0.0 mm 0.04 in1.0 mm
04:26 PM 85.8°F29.9°C 64.9°F18.3°C 50% 7.4 mph W11.9 kmh W 14.8 mph23.8 kmh 29.89 in1012.2 mb 0.00 in0.0 mm 0.00 in0.0 mm 0.04 in1.0 mm
04:21 PM 85.8°F29.9°C 65.7°F18.7°C 51% 9.4 mph SW15.1 kmh SW 14.8 mph23.8 kmh 29.89 in1012.2 mb 0.00 in0.0 mm 0.00 in0.0 mm 0.04 in1.0 mm
04:16 PM 86.0°F30.0°C 65.1°F18.4°C 50% 10.7 mph WSW17.2 kmh WSW 18.1 mph29.1 kmh 29.89 in1012.2 mb 0.00 in0.0 mm 0.00 in0.0 mm 0.04 in1.0 mm
04:11 PM 84.4°F29.1°C 66.4°F19.1°C 55% 5.6 mph SW9.0 kmh SW 12.8 mph20.6 kmh 29.89 in1012.2 mb 0.00 in0.0 mm 0.00 in0.0 mm 0.04 in1.0 mm
04:06 PM 83.7°F28.7°C 66.4°F19.1°C 56% 4.5 mph WNW7.2 kmh WNW 11.6 mph18.7 kmh 29.89 in1012.2 mb 0.00 in0.0 mm 0.00 in0.0 mm 0.04 in1.0 mm
04:01 PM 83.1°F28.4°C 65.8°F18.8°C 56% 6.5 mph WSW10.5 kmh WSW 15.9 mph25.6 kmh 29.89 in1012.2 mb 0.00 in0.0 mm 0.00 in0.0 mm 0.04 in1.0 mm
03:56 PM 82.9°F28.3°C 65.7°F18.7°C 56% 7.6 mph SSE12.2 kmh SSE 14.8 mph23.8 kmh 29.89 in1012.2 mb 0.00 in0.0 mm 0.00 in0.0 mm 0.04 in1.0 mm
03:51 PM 82.8°F28.2°C 65.5°F18.6°C 56% 8.7 mph S14.0 kmh S 22.4 mph36.0 kmh 29.90 in1012.5 mb 0.00 in0.0 mm 0.00 in0.0 mm 0.04 in1.0 mm
03:46 PM 83.5°F28.6°C 65.1°F18.4°C 54% 8.7 mph SW14.0 kmh SW 18.1 mph29.1 kmh 29.89 in1012.2 mb 0.00 in0.0 mm 0.00 in0.0 mm 0.04 in1.0 mm
03:41 PM 84.4°F29.1°C 65.3°F18.5°C 53% 9.2 mph S14.8 kmh S 17.0 mph27.4 kmh 29.89 in1012.2 mb 0.00 in0.0 mm 0.00 in0.0 mm 0.04 in1.0 mm
03:36 PM 85.5°F29.7°C 65.3°F18.5°C 51% 7.8 mph S12.6 kmh S 14.8 mph23.8 kmh 29.89 in1012.2 mb 0.00 in0.0 mm 0.00 in0.0 mm 0.04 in1.0 mm
03:31 PM 86.2°F30.1°C 64.8°F18.2°C 49% 9.4 mph SSW15.1 kmh SSW 20.1 mph32.3 kmh 29.89 in1012.2 mb 0.00 in0.0 mm 0.00 in0.0 mm 0.04 in1.0 mm
03:26 PM 86.4°F30.2°C 66.0°F18.9°C 51% 10.1 mph WSW16.3 kmh WSW 24.4 mph39.3 kmh 29.89 in1012.2 mb 0.00 in0.0 mm 0.00 in0.0 mm 0.04 in1.0 mm
03:21 PM 86.2°F30.1°C 65.8°F18.8°C 51% 5.6 mph SW9.0 kmh SW 19.0 mph30.6 kmh 29.89 in1012.2 mb 0.00 in0.0 mm 0.00 in0.0 mm 0.04 in1.0 mm
03:16 PM 85.6°F29.8°C 66.0°F18.9°C 52% 4.7 mph SW7.6 kmh SW 15.9 mph25.6 kmh 29.89 in1012.2 mb 0.00 in0.0 mm 0.00 in0.0 mm 0.04 in1.0 mm
03:11 PM 84.7°F29.3°C 65.7°F18.7°C 53% 9.8 mph SW15.8 kmh SW 17.0 mph27.4 kmh 29.89 in1012.2 mb 0.00 in0.0 mm 0.00 in0.0 mm 0.04 in1.0 mm
03:06 PM 84.6°F29.2°C 65.5°F18.6°C 53% 9.2 mph SW14.8 kmh SW 22.4 mph36.0 kmh 29.89 in1012.2 mb 0.00 in0.0 mm 0.00 in0.0 mm 0.04 in1.0 mm
03:01 PM 84.9°F29.4°C 66.4°F19.1°C 54% 9.2 mph S14.8 kmh S 15.9 mph25.6 kmh 29.89 in1012.2 mb 0.00 in0.0 mm 0.00 in0.0 mm 0.04 in1.0 mm
02:56 PM 84.9°F29.4°C 67.5°F19.7°C 56% 7.4 mph S11.9 kmh S 14.8 mph23.8 kmh 29.89 in1012.2 mb 0.00 in0.0 mm 0.00 in0.0 mm 0.04 in1.0 mm
02:51 PM 84.7°F29.3°C 67.3°F19.6°C 56% 3.8 mph S6.1 kmh S 15.9 mph25.6 kmh 29.90 in1012.5 mb 0.00 in0.0 mm 0.00 in0.0 mm 0.04 in1.0 mm
02:46 PM 84.9°F29.4°C 67.5°F19.7°C 56% 6.5 mph SW10.5 kmh SW 14.8 mph23.8 kmh 29.90 in1012.5 mb 0.00 in0.0 mm 0.00 in0.0 mm 0.04 in1.0 mm
02:41 PM 84.6°F29.2°C 66.6°F19.2°C 55% 8.7 mph SW14.0 kmh SW 19.0 mph30.6 kmh 29.90 in1012.5 mb 0.00 in0.0 mm 0.00 in0.0 mm 0.04 in1.0 mm
02:36 PM 83.8°F28.8°C 67.5°F19.7°C 58% 7.6 mph SW12.2 kmh SW 19.0 mph30.6 kmh 29.90 in1012.5 mb 0.00 in0.0 mm 0.00 in0.0 mm 0.04 in1.0 mm
02:31 PM 83.8°F28.8°C 66.9°F19.4°C 57% 8.5 mph SSW13.7 kmh SSW 19.0 mph30.6 kmh 29.90 in1012.5 mb 0.00 in0.0 mm 0.00 in0.0 mm 0.04 in1.0 mm
02:26 PM 83.1°F28.4°C 66.7°F19.3°C 58% 8.9 mph SW14.3 kmh SW 18.1 mph29.1 kmh 29.91 in1012.9 mb 0.00 in0.0 mm 0.00 in0.0 mm 0.04 in1.0 mm
02:21 PM 83.3°F28.5°C 66.9°F19.4°C 58% 11.6 mph SW18.7 kmh SW 22.4 mph36.0 kmh 29.91 in1012.9 mb 0.00 in0.0 mm 0.00 in0.0 mm 0.04 in1.0 mm
02:16 PM 84.0°F28.9°C 68.2°F20.1°C 59% 8.7 mph SW14.0 kmh SW 18.1 mph29.1 kmh 29.91 in1012.9 mb 0.00 in0.0 mm 0.00 in0.0 mm 0.04 in1.0 mm
02:11 PM 83.7°F28.7°C 68.7°F20.4°C 61% 4.7 mph W7.6 kmh W 17.0 mph27.4 kmh 29.91 in1012.9 mb 0.00 in0.0 mm 0.00 in0.0 mm 0.04 in1.0 mm
02:06 PM 83.1°F28.4°C 69.6°F20.9°C 64% 6.3 mph SW10.1 kmh SW 14.8 mph23.8 kmh 29.91 in1012.9 mb 0.00 in0.0 mm 0.00 in0.0 mm 0.04 in1.0 mm
02:01 PM 82.6°F28.1°C 68.2°F20.1°C 62% 8.9 mph SSW14.3 kmh SSW 17.0 mph27.4 kmh 29.91 in1012.9 mb 0.00 in0.0 mm 0.00 in0.0 mm 0.04 in1.0 mm
01:56 PM 82.0°F27.8°C 68.7°F20.4°C 64% 5.4 mph SW8.7 kmh SW 12.8 mph20.6 kmh 29.91 in1012.9 mb 0.00 in0.0 mm 0.00 in0.0 mm 0.04 in1.0 mm
01:51 PM 82.0°F27.8°C 67.3°F19.6°C 61% 9.4 mph SSW15.1 kmh SSW 19.0 mph30.6 kmh 29.91 in1012.9 mb 0.00 in0.0 mm 0.00 in0.0 mm 0.04 in1.0 mm
01:46 PM 83.3°F28.5°C 68.4°F20.2°C 61% 9.6 mph SW15.4 kmh SW 18.1 mph29.1 kmh 29.91 in1012.9 mb 0.00 in0.0 mm 0.00 in0.0 mm 0.04 in1.0 mm
01:41 PM 82.8°F28.2°C 69.8°F21.0°C 65% 4.3 mph S6.9 kmh S 14.8 mph23.8 kmh 29.91 in1012.9 mb 0.00 in0.0 mm 0.00 in0.0 mm 0.04 in1.0 mm
01:36 PM 81.9°F27.7°C 68.9°F20.5°C 65% 8.3 mph S13.4 kmh S 17.0 mph27.4 kmh 29.92 in1013.2 mb 0.00 in0.0 mm 0.00 in0.0 mm 0.04 in1.0 mm
01:31 PM 81.7°F27.6°C 69.3°F20.7°C 66% 7.4 mph SE11.9 kmh SE 13.9 mph22.4 kmh 29.92 in1013.2 mb 0.00 in0.0 mm 0.00 in0.0 mm 0.04 in1.0 mm
01:26 PM 81.0°F27.2°C 69.4°F20.8°C 68% 7.4 mph SW11.9 kmh SW 14.8 mph23.8 kmh 29.92 in1013.2 mb 0.00 in0.0 mm 0.00 in0.0 mm 0.04 in1.0 mm
01:21 PM 80.2°F26.8°C 70.3°F21.3°C 72% 7.4 mph W11.9 kmh W 14.8 mph23.8 kmh 29.92 in1013.2 mb 0.00 in0.0 mm 0.00 in0.0 mm 0.04 in1.0 mm
01:16 PM 78.8°F26.0°C 69.8°F21.0°C 74% 6.7 mph S10.8 kmh S 10.5 mph16.9 kmh 29.93 in1013.5 mb 0.00 in0.0 mm 0.00 in0.0 mm 0.04 in1.0 mm
01:11 PM 76.3°F24.6°C 70.3°F21.3°C 82% 3.8 mph SW6.1 kmh SW 8.5 mph13.7 kmh 29.93 in1013.5 mb 0.00 in0.0 mm 0.00 in0.0 mm 0.04 in1.0 mm
01:06 PM 72.9°F22.7°C 67.5°F19.7°C 83% 1.3 mph SE2.1 kmh SE 4.3 mph6.9 kmh 29.93 in1013.5 mb 0.00 in0.0 mm 0.00 in0.0 mm 0.04 in1.0 mm
01:01 PM 69.3°F20.7°C 64.2°F17.9°C 84% 2.2 mph S3.5 kmh S 4.3 mph6.9 kmh 29.93 in1013.5 mb 0.00 in0.0 mm 0.00 in0.0 mm 0.04 in1.0 mm
12:56 PM 66.9°F19.4°C 61.9°F16.6°C 84% 1.3 mph ENE2.1 kmh ENE 3.1 mph5.0 kmh 29.93 in1013.5 mb 0.00 in0.0 mm 0.00 in0.0 mm 0.04 in1.0 mm
12:51 PM 65.5°F18.6°C 60.4°F15.8°C 84% 2.2 mph NE3.5 kmh NE 4.3 mph6.9 kmh 29.93 in1013.5 mb 0.00 in0.0 mm 0.00 in0.0 mm 0.04 in1.0 mm
12:46 PM 64.6°F18.1°C 59.7°F15.4°C 84% 1.6 mph NE2.6 kmh NE 3.1 mph5.0 kmh 29.93 in1013.5 mb 0.00 in0.0 mm 0.00 in0.0 mm 0.04 in1.0 mm
12:41 PM 64.2°F17.9°C 59.0°F15.0°C 83% 2.0 mph ENE3.2 kmh ENE 3.1 mph5.0 kmh 29.93 in1013.5 mb 0.00 in0.0 mm 0.00 in0.0 mm 0.04 in1.0 mm
12:36 PM 63.7°F17.6°C 58.5°F14.7°C 83% 0.4 mph NE0.6 kmh NE 2.0 mph3.2 kmh 29.93 in1013.5 mb 0.00 in0.0 mm 0.00 in0.0 mm 0.04 in1.0 mm
12:31 PM 63.7°F17.6°C 58.5°F14.7°C 83% 0.9 mph NE1.4 kmh NE 2.0 mph3.2 kmh 29.94 in1013.9 mb 0.00 in0.0 mm 0.00 in0.0 mm 0.04 in1.0 mm
12:26 PM 63.7°F17.6°C 58.5°F14.7°C 83% 0.9 mph NE1.4 kmh NE 3.1 mph5.0 kmh 29.94 in1013.9 mb 0.00 in0.0 mm 0.00 in0.0 mm 0.04 in1.0 mm
12:21 PM 64.9°F18.3°C 57.6°F14.2°C 77% 1.6 mph NE2.6 kmh NE 3.1 mph5.0 kmh 29.94 in1013.9 mb 0.00 in0.0 mm 0.00 in0.0 mm 0.04 in1.0 mm
12:16 PM 70.0°F21.1°C 59.4°F15.2°C 69% 2.2 mph NE3.5 kmh NE 4.3 mph6.9 kmh 29.94 in1013.9 mb 0.00 in0.0 mm 0.00 in0.0 mm 0.04 in1.0 mm
12:11 PM 72.9°F22.7°C 61.3°F16.3°C 67% 1.6 mph NE2.6 kmh NE 2.0 mph3.2 kmh 29.94 in1013.9 mb 0.00 in0.0 mm 0.00 in0.0 mm 0.04 in1.0 mm
12:06 PM 75.4°F24.1°C 65.7°F18.7°C 72% 1.3 mph SW2.1 kmh SW 8.5 mph13.7 kmh 29.94 in1013.9 mb 0.00 in0.0 mm 0.00 in0.0 mm 0.04 in1.0 mm
12:01 PM 75.9°F24.4°C 70.0°F21.1°C 82% 2.0 mph S3.2 kmh S 6.3 mph10.1 kmh 29.94 in1013.9 mb 0.00 in0.0 mm 0.00 in0.0 mm 0.04 in1.0 mm
11:56 AM 75.7°F24.3°C 69.8°F21.0°C 82% 3.8 mph S6.1 kmh S 10.5 mph16.9 kmh 29.94 in1013.9 mb 0.00 in0.0 mm 0.00 in0.0 mm 0.04 in1.0 mm
11:50 AM 75.9°F24.4°C 69.6°F20.9°C 81% 4.9 mph SSW7.9 kmh SSW 11.6 mph18.7 kmh 29.94 in1013.9 mb 0.00 in0.0 mm 0.00 in0.0 mm 0.04 in1.0 mm
11:45 AM 76.1°F24.5°C 69.8°F21.0°C 81% 4.3 mph S6.9 kmh S 8.5 mph13.7 kmh 29.94 in1013.9 mb 0.00 in0.0 mm 0.00 in0.0 mm 0.04 in1.0 mm
11:40 AM 76.3°F24.6°C 69.6°F20.9°C 80% 4.9 mph S7.9 kmh S 9.6 mph15.4 kmh 29.95 in1014.2 mb 0.00 in0.0 mm 0.00 in0.0 mm 0.04 in1.0 mm
11:35 AM 76.5°F24.7°C 69.8°F21.0°C 80% 2.2 mph S3.5 kmh S 4.3 mph6.9 kmh 29.95 in1014.2 mb 0.00 in0.0 mm 0.00 in0.0 mm 0.04 in1.0 mm
11:30 AM 76.5°F24.7°C 70.2°F21.2°C 81% 3.1 mph SSW5.0 kmh SSW 5.4 mph8.7 kmh 29.95 in1014.2 mb 0.00 in0.0 mm 0.00 in0.0 mm 0.04 in1.0 mm
11:25 AM 76.5°F24.7°C 70.2°F21.2°C 81% 2.9 mph S4.7 kmh S 7.4 mph11.9 kmh 29.95 in1014.2 mb 0.00 in0.0 mm 0.00 in0.0 mm 0.04 in1.0 mm
11:20 AM 75.9°F24.4°C 69.6°F20.9°C 81% 3.6 mph S5.8 kmh S 11.6 mph18.7 kmh 29.95 in1014.2 mb 0.00 in0.0 mm 0.00 in0.0 mm 0.04 in1.0 mm
11:15 AM 75.7°F24.3°C 69.8°F21.0°C 82% 4.0 mph W6.4 kmh W 7.4 mph11.9 kmh 29.95 in1014.2 mb 0.00 in0.0 mm 0.00 in0.0 mm 0.04 in1.0 mm
11:10 AM 75.6°F24.2°C 69.6°F20.9°C 82% 2.7 mph S4.3 kmh S 7.4 mph11.9 kmh 29.95 in1014.2 mb 0.00 in0.0 mm 0.00 in0.0 mm 0.04 in1.0 mm
11:05 AM 75.0°F23.9°C 69.8°F21.0°C 84% 2.7 mph SSE4.3 kmh SSE 8.5 mph13.7 kmh 29.95 in1014.2 mb 0.00 in0.0 mm 0.00 in0.0 mm 0.04 in1.0 mm
11:00 AM 74.1°F23.4°C 69.6°F20.9°C 86% 4.3 mph S6.9 kmh S 6.3 mph10.1 kmh 29.95 in1014.2 mb 0.00 in0.0 mm 0.00 in0.0 mm 0.04 in1.0 mm
10:55 AM 73.8°F23.2°C 69.6°F20.9°C 87% 2.0 mph SE3.2 kmh SE 7.4 mph11.9 kmh 29.95 in1014.2 mb 0.00 in0.0 mm 0.00 in0.0 mm 0.04 in1.0 mm
10:50 AM 73.2°F22.9°C 69.4°F20.8°C 88% 3.6 mph SSE5.8 kmh SSE 7.4 mph11.9 kmh 29.95 in1014.2 mb 0.00 in0.0 mm 0.00 in0.0 mm 0.04 in1.0 mm
10:45 AM 72.7°F22.6°C 68.9°F20.5°C 88% 2.5 mph WSW4.0 kmh WSW 6.3 mph10.1 kmh 29.95 in1014.2 mb 0.00 in0.0 mm 0.00 in0.0 mm 0.04 in1.0 mm
10:40 AM 71.8°F22.1°C 68.7°F20.4°C 90% 1.1 mph S1.8 kmh S 6.3 mph10.1 kmh 29.96 in1014.6 mb 0.00 in0.0 mm 0.00 in0.0 mm 0.04 in1.0 mm
10:35 AM 70.2°F21.2°C 68.0°F20.0°C 93% 3.4 mph S5.5 kmh S 8.5 mph13.7 kmh 29.96 in1014.6 mb 0.00 in0.0 mm 0.00 in0.0 mm 0.04 in1.0 mm
10:30 AM 66.9°F19.4°C 65.5°F18.6°C 95% 4.0 mph S6.4 kmh S 7.4 mph11.9 kmh 29.96 in1014.6 mb 0.00 in0.0 mm 0.00 in0.0 mm 0.04 in1.0 mm
10:25 AM 64.2°F17.9°C 61.5°F16.4°C 91% - N16091.8 kmh N -- 29.96 in1014.6 mb 0.00 in0.0 mm 0.00 in0.0 mm 0.04 in1.0 mm
10:20 AM 62.2°F16.8°C 59.0°F15.0°C 89% 0.7 mph E1.1 kmh E 2.0 mph3.2 kmh 29.96 in1014.6 mb 0.00 in0.0 mm 0.00 in0.0 mm 0.04 in1.0 mm
10:15 AM 61.2°F16.2°C 58.5°F14.7°C 91% Calm Calm 2.0 mph3.2 kmh 29.96 in1014.6 mb 0.00 in0.0 mm 0.00 in0.0 mm 0.04 in1.0 mm
10:10 AM 60.6°F15.9°C 57.9°F14.4°C 91% 0.7 mph NE1.1 kmh NE 2.0 mph3.2 kmh 29.96 in1014.6 mb 0.00 in0.0 mm 0.00 in0.0 mm 0.04 in1.0 mm
10:05 AM 60.8°F16.0°C 58.8°F14.9°C 93% 0.4 mph ENE0.6 kmh ENE 2.0 mph3.2 kmh 29.96 in1014.6 mb 0.00 in0.0 mm 0.00 in0.0 mm 0.04 in1.0 mm
10:00 AM 60.8°F16.0°C 58.5°F14.7°C 92% 0.7 mph ENE1.1 kmh ENE 2.0 mph3.2 kmh 29.96 in1014.6 mb 0.00 in0.0 mm 0.00 in0.0 mm 0.04 in1.0 mm
09:55 AM 61.0°F16.1°C 59.0°F15.0°C 93% 0.9 mph NE1.4 kmh NE 2.0 mph3.2 kmh 29.96 in1014.6 mb 0.00 in0.0 mm 0.00 in0.0 mm 0.04 in1.0 mm
09:50 AM 60.8°F16.0°C 58.8°F14.9°C 93% 0.7 mph ENE1.1 kmh ENE 2.0 mph3.2 kmh 29.96 in1014.6 mb 0.00 in0.0 mm 0.00 in0.0 mm 0.04 in1.0 mm
09:45 AM 60.8°F16.0°C 58.8°F14.9°C 93% 1.1 mph ENE1.8 kmh ENE 3.1 mph5.0 kmh 29.96 in1014.6 mb 0.00 in0.0 mm 0.00 in0.0 mm 0.04 in1.0 mm
09:40 AM 61.0°F16.1°C 58.6°F14.8°C 92% 1.3 mph E2.1 kmh E 3.1 mph5.0 kmh 29.96 in1014.6 mb 0.00 in0.0 mm 0.00 in0.0 mm 0.04 in1.0 mm
09:35 AM 60.6°F15.9°C 58.6°F14.8°C 93% 1.8 mph E2.9 kmh E 3.1 mph5.0 kmh 29.96 in1014.6 mb 0.00 in0.0 mm 0.00 in0.0 mm 0.04 in1.0 mm
09:30 AM 60.3°F15.7°C 58.3°F14.6°C 93% 1.6 mph E2.6 kmh E 2.0 mph3.2 kmh 29.96 in1014.6 mb 0.00 in0.0 mm 0.00 in0.0 mm 0.04 in1.0 mm
09:25 AM 59.5°F15.3°C 58.1°F14.5°C 95% 0.2 mph NE0.3 kmh NE 1.1 mph1.8 kmh 29.96 in1014.6 mb 0.00 in0.0 mm 0.00 in0.0 mm 0.04 in1.0 mm
09:20 AM 58.6°F14.8°C 57.6°F14.2°C 96% Calm Calm -- 29.96 in1014.6 mb 0.00 in0.0 mm 0.00 in0.0 mm 0.04 in1.0 mm
09:15 AM 57.6°F14.2°C 56.7°F13.7°C 97% Calm Calm -- 29.96 in1014.6 mb 0.00 in0.0 mm 0.00 in0.0 mm 0.04 in1.0 mm
09:10 AM 56.8°F13.8°C 55.9°F13.3°C 97% Calm Calm -- 29.96 in1014.6 mb 0.00 in0.0 mm 0.00 in0.0 mm 0.04 in1.0 mm
09:05 AM 56.7°F13.7°C 55.6°F13.1°C 96% Calm Calm -- 29.96 in1014.6 mb 0.00 in0.0 mm 0.00 in0.0 mm 0.04 in1.0 mm
09:00 AM 56.5°F13.6°C 55.4°F13.0°C 96% Calm Calm -- 29.96 in1014.6 mb 0.00 in0.0 mm 0.00 in0.0 mm 0.04 in1.0 mm
08:55 AM 56.5°F13.6°C 55.4°F13.0°C 96% 0.4 mph E0.6 kmh E 1.1 mph1.8 kmh 29.96 in1014.6 mb 0.00 in0.0 mm 0.00 in0.0 mm 0.04 in1.0 mm
08:50 AM 56.3°F13.5°C 54.9°F12.7°C 95% Calm Calm 3.1 mph5.0 kmh 29.96 in1014.6 mb 0.00 in0.0 mm 0.00 in0.0 mm 0.04 in1.0 mm
08:45 AM 56.7°F13.7°C 55.0°F12.8°C 94% 2.0 mph ENE3.2 kmh ENE 4.3 mph6.9 kmh 29.96 in1014.6 mb 0.00 in0.0 mm 0.00 in0.0 mm 0.04 in1.0 mm
08:40 AM 57.0°F13.9°C 55.2°F12.9°C 94% 2.2 mph E3.5 kmh E 5.4 mph8.7 kmh 29.96 in1014.6 mb 0.00 in0.0 mm 0.00 in0.0 mm 0.04 in1.0 mm
08:35 AM 58.3°F14.6°C 57.2°F14.0°C 96% 2.7 mph ENE4.3 kmh ENE 3.1 mph5.0 kmh 29.95 in1014.2 mb 0.00 in0.0 mm 0.00 in0.0 mm 0.04 in1.0 mm
08:30 AM 59.5°F15.3°C 58.6°F14.8°C 97% 0.2 mph NE0.3 kmh NE 1.1 mph1.8 kmh 29.95 in1014.2 mb 0.00 in0.0 mm 0.00 in0.0 mm 0.04 in1.0 mm
08:25 AM 60.1°F15.6°C 59.7°F15.4°C 99% Calm Calm -- 29.96 in1014.6 mb 0.00 in0.0 mm 0.00 in0.0 mm 0.04 in1.0 mm
08:19 AM 59.4°F15.2°C 59.0°F15.0°C 99% Calm Calm -- 29.95 in1014.2 mb 0.00 in0.0 mm 0.00 in0.0 mm 0.04 in1.0 mm
08:14 AM 58.5°F14.7°C 57.9°F14.4°C 98% Calm Calm -- 29.96 in1014.6 mb 0.00 in0.0 mm 0.00 in0.0 mm 0.04 in1.0 mm
08:09 AM 57.9°F14.4°C 57.4°F14.1°C 98% Calm Calm -- 29.96 in1014.6 mb 0.00 in0.0 mm 0.00 in0.0 mm 0.04 in1.0 mm
08:04 AM 57.4°F14.1°C 56.5°F13.6°C 97% Calm Calm 2.0 mph3.2 kmh 29.96 in1014.6 mb 0.00 in0.0 mm 0.00 in0.0 mm 0.04 in1.0 mm
07:59 AM 57.2°F14.0°C 56.3°F13.5°C 97% Calm Calm 1.1 mph1.8 kmh 29.96 in1014.6 mb 0.00 in0.0 mm 0.00 in0.0 mm 0.04 in1.0 mm
07:54 AM 57.0°F13.9°C 56.1°F13.4°C 97% 0.7 mph NE1.1 kmh NE 2.0 mph3.2 kmh 29.96 in1014.6 mb 0.00 in0.0 mm 0.00 in0.0 mm 0.04 in1.0 mm
07:49 AM 56.8°F13.8°C 55.9°F13.3°C 97% 0.2 mph E0.3 kmh E 2.0 mph3.2 kmh 29.96 in1014.6 mb 0.00 in0.0 mm 0.00 in0.0 mm 0.04 in1.0 mm
07:44 AM 56.7°F13.7°C 55.6°F13.1°C 96% 0.9 mph ESE1.4 kmh ESE 4.3 mph6.9 kmh 29.96 in1014.6 mb 0.00 in0.0 mm 0.00 in0.0 mm 0.04 in1.0 mm
07:39 AM 56.8°F13.8°C 55.8°F13.2°C 96% 3.4 mph ESE5.5 kmh ESE 6.3 mph10.1 kmh 29.96 in1014.6 mb 0.00 in0.0 mm 0.00 in0.0 mm 0.04 in1.0 mm
07:34 AM 57.0°F13.9°C 56.1°F13.4°C 97% 2.7 mph E4.3 kmh E 3.1 mph5.0 kmh 29.96 in1014.6 mb 0.00 in0.0 mm 0.00 in0.0 mm 0.04 in1.0 mm
07:29 AM 56.8°F13.8°C 55.8°F13.2°C 96% 0.9 mph E1.4 kmh E 3.1 mph5.0 kmh 29.96 in1014.6 mb 0.00 in0.0 mm 0.00 in0.0 mm 0.04 in1.0 mm
07:24 AM 57.0°F13.9°C 55.9°F13.3°C 96% 1.1 mph E1.8 kmh E 3.1 mph5.0 kmh 29.96 in1014.6 mb 0.00 in0.0 mm 0.00 in0.0 mm 0.04 in1.0 mm
07:19 AM 57.0°F13.9°C 55.9°F13.3°C 96% 1.3 mph E2.1 kmh E 4.3 mph6.9 kmh 29.96 in1014.6 mb 0.00 in0.0 mm 0.00 in0.0 mm 0.04 in1.0 mm
07:14 AM 57.7°F14.3°C 56.7°F13.7°C 96% 3.4 mph E5.5 kmh E 4.3 mph6.9 kmh 29.96 in1014.6 mb 0.00 in0.0 mm 0.00 in0.0 mm 0.04 in1.0 mm
07:09 AM 57.9°F14.4°C 57.0°F13.9°C 97% 2.7 mph E4.3 kmh E 3.1 mph5.0 kmh 29.96 in1014.6 mb 0.00 in0.0 mm 0.00 in0.0 mm 0.04 in1.0 mm
07:04 AM 57.7°F14.3°C 56.8°F13.8°C 97% 1.8 mph E2.9 kmh E 3.1 mph5.0 kmh 29.96 in1014.6 mb 0.00 in0.0 mm 0.00 in0.0 mm 0.04 in1.0 mm
06:59 AM 57.4°F14.1°C 56.3°F13.5°C 96% 1.1 mph E1.8 kmh E 3.1 mph5.0 kmh 29.96 in1014.6 mb 0.00 in0.0 mm 0.00 in0.0 mm 0.04 in1.0 mm
06:54 AM 57.6°F14.2°C 56.5°F13.6°C 96% 1.1 mph E1.8 kmh E 4.3 mph6.9 kmh 29.96 in1014.6 mb 0.00 in0.0 mm 0.00 in0.0 mm 0.04 in1.0 mm
06:49 AM 58.1°F14.5°C 57.2°F14.0°C 97% 1.6 mph E2.6 kmh E 3.1 mph5.0 kmh 29.96 in1014.6 mb 0.00 in0.0 mm 0.00 in0.0 mm 0.04 in1.0 mm
06:44 AM 58.5°F14.7°C 57.6°F14.2°C 97% 0.4 mph ENE0.6 kmh ENE -- 29.96 in1014.6 mb 0.00 in0.0 mm 0.00 in0.0 mm 0.04 in1.0 mm
06:39 AM 58.3°F14.6°C 57.4°F14.1°C 97% Calm Calm -- 29.96 in1014.6 mb 0.00 in0.0 mm 0.00 in0.0 mm 0.04 in1.0 mm
06:34 AM 58.3°F14.6°C 57.4°F14.1°C 97% Calm Calm -- 29.96 in1014.6 mb 0.00 in0.0 mm 0.00 in0.0 mm 0.04 in1.0 mm
06:29 AM 57.9°F14.4°C 57.0°F13.9°C 97% Calm Calm -- 29.96 in1014.6 mb 0.00 in0.0 mm 0.00 in0.0 mm 0.04 in1.0 mm
06:24 AM 57.7°F14.3°C 56.8°F13.8°C 97% Calm Calm 3.1 mph5.0 kmh 29.96 in1014.6 mb 0.00 in0.0 mm 0.00 in0.0 mm 0.04 in1.0 mm
06:19 AM 57.2°F14.0°C 56.1°F13.4°C 96% Calm Calm -- 29.95 in1014.2 mb 0.00 in0.0 mm 0.00 in0.0 mm 0.04 in1.0 mm
06:14 AM 57.0°F13.9°C 55.9°F13.3°C 96% Calm Calm -- 29.94 in1013.9 mb 0.00 in0.0 mm 0.00 in0.0 mm 0.04 in1.0 mm
06:09 AM 57.0°F13.9°C 55.6°F13.1°C 95% Calm Calm -- 29.94 in1013.9 mb 0.00 in0.0 mm 0.00 in0.0 mm 0.04 in1.0 mm
06:04 AM 57.0°F13.9°C 55.6°F13.1°C 95% Calm Calm 3.1 mph5.0 kmh 29.94 in1013.9 mb 0.00 in0.0 mm 0.00 in0.0 mm 0.04 in1.0 mm
05:59 AM 57.0°F13.9°C 55.6°F13.1°C 95% 0.7 mph ENE1.1 kmh ENE 1.1 mph1.8 kmh 29.94 in1013.9 mb 0.00 in0.0 mm 0.00 in0.0 mm 0.04 in1.0 mm
05:54 AM 57.6°F14.2°C 55.8°F13.2°C 94% 1.3 mph E2.1 kmh E 3.1 mph5.0 kmh 29.94 in1013.9 mb 0.00 in0.0 mm 0.00 in0.0 mm 0.04 in1.0 mm
05:49 AM 57.9°F14.4°C 56.5°F13.6°C 95% 0.7 mph E1.1 kmh E 3.1 mph5.0 kmh 29.94 in1013.9 mb 0.00 in0.0 mm 0.00 in0.0 mm 0.04 in1.0 mm
05:44 AM 58.1°F14.5°C 56.7°F13.7°C 95% 2.5 mph E4.0 kmh E 3.1 mph5.0 kmh 29.94 in1013.9 mb 0.00 in0.0 mm 0.00 in0.0 mm 0.04 in1.0 mm
05:39 AM 58.1°F14.5°C 56.7°F13.7°C 95% Calm Calm -- 29.94 in1013.9 mb 0.00 in0.0 mm 0.00 in0.0 mm 0.04 in1.0 mm
05:34 AM 58.1°F14.5°C 56.3°F13.5°C 94% Calm Calm -- 29.94 in1013.9 mb 0.00 in0.0 mm 0.00 in0.0 mm 0.04 in1.0 mm
05:29 AM 58.3°F14.6°C 56.3°F13.5°C 93% Calm Calm 1.1 mph1.8 kmh 29.94 in1013.9 mb 0.00 in0.0 mm 0.00 in0.0 mm 0.04 in1.0 mm
05:24 AM 59.0°F15.0°C 57.0°F13.9°C 93% 0.7 mph NE1.1 kmh NE 2.0 mph3.2 kmh 29.94 in1013.9 mb 0.00 in0.0 mm 0.00 in0.0 mm 0.04 in1.0 mm
05:19 AM 59.5°F15.3°C 57.7°F14.3°C 94% Calm Calm -- 29.94 in1013.9 mb 0.00 in0.0 mm 0.00 in0.0 mm 0.04 in1.0 mm
05:14 AM 60.1°F15.6°C 58.3°F14.6°C 94% Calm Calm 2.0 mph3.2 kmh 29.93 in1013.5 mb 0.00 in0.0 mm 0.00 in0.0 mm 0.04 in1.0 mm
05:09 AM 60.6°F15.9°C 58.8°F14.9°C 94% 0.9 mph ENE1.4 kmh ENE 2.0 mph3.2 kmh 29.93 in1013.5 mb 0.00 in0.0 mm 0.00 in0.0 mm 0.04 in1.0 mm
05:04 AM 61.2°F16.2°C 59.7°F15.4°C 95% 0.2 mph NNE0.3 kmh NNE 1.1 mph1.8 kmh 29.93 in1013.5 mb 0.00 in0.0 mm 0.00 in0.0 mm 0.04 in1.0 mm
04:59 AM 61.3°F16.3°C 59.9°F15.5°C 95% Calm Calm -- 29.93 in1013.5 mb 0.00 in0.0 mm 0.00 in0.0 mm 0.04 in1.0 mm
04:54 AM 61.7°F16.5°C 59.9°F15.5°C 94% Calm Calm -- 29.93 in1013.5 mb 0.00 in0.0 mm 0.00 in0.0 mm 0.04 in1.0 mm
04:49 AM 62.1°F16.7°C 60.1°F15.6°C 93% 0.2 mph NE0.3 kmh NE 2.0 mph3.2 kmh 29.93 in1013.5 mb 0.00 in0.0 mm 0.00 in0.0 mm 0.04 in1.0 mm
04:44 AM 62.6°F17.0°C 60.8°F16.0°C 94% 1.1 mph ENE1.8 kmh ENE 3.1 mph5.0 kmh 29.92 in1013.2 mb 0.00 in0.0 mm 0.00 in0.0 mm 0.04 in1.0 mm
04:39 AM 62.6°F17.0°C 60.6°F15.9°C 93% 1.1 mph S1.8 kmh S 3.1 mph5.0 kmh 29.92 in1013.2 mb 0.00 in0.0 mm 0.00 in0.0 mm 0.04 in1.0 mm
04:34 AM 62.8°F17.1°C 60.4°F15.8°C 92% 0.2 mph SE0.3 kmh SE 2.0 mph3.2 kmh 29.92 in1013.2 mb 0.00 in0.0 mm 0.00 in0.0 mm 0.04 in1.0 mm
04:29 AM 63.1°F17.3°C 60.4°F15.8°C 91% 0.9 mph ENE1.4 kmh ENE 1.1 mph1.8 kmh 29.93 in1013.5 mb 0.00 in0.0 mm 0.00 in0.0 mm 0.04 in1.0 mm
04:24 AM 64.0°F17.8°C 61.7°F16.5°C 92% 1.3 mph ENE2.1 kmh ENE 5.4 mph8.7 kmh 29.93 in1013.5 mb 0.00 in0.0 mm 0.00 in0.0 mm 0.04 in1.0 mm
04:19 AM 64.9°F18.3°C 63.5°F17.5°C 95% 4.0 mph S6.4 kmh S 5.4 mph8.7 kmh 29.93 in1013.5 mb 0.00 in0.0 mm 0.00 in0.0 mm 0.04 in1.0 mm
04:14 AM 64.9°F18.3°C 63.5°F17.5°C 95% 2.7 mph SSE4.3 kmh SSE 5.4 mph8.7 kmh 29.93 in1013.5 mb 0.01 in0.3 mm 0.00 in0.0 mm 0.04 in1.0 mm
04:09 AM 64.8°F18.2°C 63.3°F17.4°C 95% 1.6 mph S2.6 kmh S 5.4 mph8.7 kmh 29.93 in1013.5 mb 0.01 in0.3 mm 0.00 in0.0 mm 0.04 in1.0 mm
04:04 AM 64.8°F18.2°C 63.3°F17.4°C 95% Calm Calm -- 29.93 in1013.5 mb 0.01 in0.3 mm 0.00 in0.0 mm 0.04 in1.0 mm
03:59 AM 64.8°F18.2°C 63.3°F17.4°C 95% Calm Calm 2.0 mph3.2 kmh 29.93 in1013.5 mb 0.01 in0.3 mm 0.00 in0.0 mm 0.04 in1.0 mm
03:54 AM 64.6°F18.1°C 63.1°F17.3°C 95% 2.5 mph S4.0 kmh S -- 29.93 in1013.5 mb 0.02 in0.5 mm 0.00 in0.0 mm 0.04 in1.0 mm
03:49 AM 64.6°F18.1°C 63.1°F17.3°C 95% 2.0 mph S3.2 kmh S 7.4 mph11.9 kmh 29.93 in1013.5 mb 0.02 in0.5 mm 0.00 in0.0 mm 0.04 in1.0 mm
03:44 AM 64.6°F18.1°C 63.1°F17.3°C 95% 4.7 mph SSE7.6 kmh SSE 8.5 mph13.7 kmh 29.93 in1013.5 mb 0.02 in0.5 mm 0.00 in0.0 mm 0.04 in1.0 mm
03:39 AM 64.4°F18.0°C 63.0°F17.2°C 95% 4.3 mph S6.9 kmh S 7.4 mph11.9 kmh 29.93 in1013.5 mb 0.02 in0.5 mm 0.00 in0.0 mm 0.04 in1.0 mm
03:34 AM 64.4°F18.0°C 63.0°F17.2°C 95% 3.1 mph SE5.0 kmh SE 7.4 mph11.9 kmh 29.93 in1013.5 mb 0.02 in0.5 mm 0.00 in0.0 mm 0.04 in1.0 mm
03:29 AM 64.4°F18.0°C 63.0°F17.2°C 95% 1.3 mph S2.1 kmh S 4.3 mph6.9 kmh 29.93 in1013.5 mb 0.03 in0.8 mm 0.00 in0.0 mm 0.04 in1.0 mm
03:24 AM 64.4°F18.0°C 63.0°F17.2°C 95% 1.3 mph SSE2.1 kmh SSE 4.3 mph6.9 kmh 29.93 in1013.5 mb 0.03 in0.8 mm 0.00 in0.0 mm 0.04 in1.0 mm
03:19 AM 64.4°F18.0°C 63.0°F17.2°C 95% 2.5 mph S4.0 kmh S 5.4 mph8.7 kmh 29.93 in1013.5 mb 0.03 in0.8 mm 0.12 in3.0 mm 0.04 in1.0 mm
03:14 AM 64.2°F17.9°C 62.4°F16.9°C 94% 1.3 mph S2.1 kmh S 5.4 mph8.7 kmh 29.94 in1013.9 mb 0.02 in0.5 mm 0.00 in0.0 mm 0.03 in0.8 mm
03:09 AM 64.2°F17.9°C 62.4°F16.9°C 94% 2.9 mph SSE4.7 kmh SSE 6.3 mph10.1 kmh 29.94 in1013.9 mb 0.02 in0.5 mm 0.00 in0.0 mm 0.03 in0.8 mm
03:04 AM 64.2°F17.9°C 62.4°F16.9°C 94% 2.0 mph SE3.2 kmh SE 4.3 mph6.9 kmh 29.94 in1013.9 mb 0.02 in0.5 mm 0.00 in0.0 mm 0.03 in0.8 mm
02:59 AM 64.2°F17.9°C 62.2°F16.8°C 93% 3.8 mph S6.1 kmh S 8.5 mph13.7 kmh 29.95 in1014.2 mb 0.02 in0.5 mm 0.12 in3.0 mm 0.03 in0.8 mm
02:54 AM 64.4°F18.0°C 62.4°F16.9°C 93% 2.9 mph SSW4.7 kmh SSW 4.3 mph6.9 kmh 29.95 in1014.2 mb 0.01 in0.3 mm 0.00 in0.0 mm 0.02 in0.5 mm
02:49 AM 64.6°F18.1°C 62.2°F16.8°C 92% 2.7 mph SSW4.3 kmh SSW 5.4 mph8.7 kmh 29.95 in1014.2 mb 0.01 in0.3 mm 0.00 in0.0 mm 0.02 in0.5 mm
02:44 AM 64.6°F18.1°C 62.2°F16.8°C 92% 2.0 mph SSW3.2 kmh SSW 5.4 mph8.7 kmh 29.95 in1014.2 mb 0.01 in0.3 mm 0.00 in0.0 mm 0.02 in0.5 mm
02:39 AM 64.8°F18.2°C 62.1°F16.7°C 91% 2.5 mph SSW4.0 kmh SSW 5.4 mph8.7 kmh 29.95 in1014.2 mb 0.01 in0.3 mm 0.00 in0.0 mm 0.02 in0.5 mm
02:34 AM 64.8°F18.2°C 62.1°F16.7°C 91% 2.5 mph SSW4.0 kmh SSW 8.5 mph13.7 kmh 29.95 in1014.2 mb 0.01 in0.3 mm 0.12 in3.0 mm 0.02 in0.5 mm
02:29 AM 64.9°F18.3°C 61.9°F16.6°C 90% 2.5 mph SW4.0 kmh SW 7.4 mph11.9 kmh 29.95 in1014.2 mb 0.00 in0.0 mm 0.00 in0.0 mm 0.01 in0.3 mm
02:24 AM 64.9°F18.3°C 61.9°F16.6°C 90% 3.4 mph SW5.5 kmh SW 8.5 mph13.7 kmh 29.95 in1014.2 mb 0.01 in0.3 mm 0.00 in0.0 mm 0.01 in0.3 mm
02:19 AM 65.1°F18.4°C 62.1°F16.7°C 90% 3.4 mph S5.5 kmh S 7.4 mph11.9 kmh 29.95 in1014.2 mb 0.01 in0.3 mm 0.00 in0.0 mm 0.01 in0.3 mm
02:14 AM 65.1°F18.4°C 62.1°F16.7°C 90% 2.7 mph S4.3 kmh S 5.4 mph8.7 kmh 29.95 in1014.2 mb 0.01 in0.3 mm 0.00 in0.0 mm 0.01 in0.3 mm
02:09 AM 65.1°F18.4°C 61.9°F16.6°C 89% 2.0 mph S3.2 kmh S 6.3 mph10.1 kmh 29.95 in1014.2 mb 0.01 in0.3 mm 0.00 in0.0 mm 0.01 in0.3 mm
02:04 AM 65.1°F18.4°C 62.1°F16.7°C 90% 3.4 mph SSW5.5 kmh SSW 5.4 mph8.7 kmh 29.95 in1014.2 mb 0.01 in0.3 mm 0.00 in0.0 mm 0.01 in0.3 mm
01:59 AM 65.1°F18.4°C 61.9°F16.6°C 89% 1.8 mph S2.9 kmh S 7.4 mph11.9 kmh 29.95 in1014.2 mb 0.01 in0.3 mm 0.00 in0.0 mm 0.01 in0.3 mm
01:54 AM 65.1°F18.4°C 61.9°F16.6°C 89% 1.6 mph SE2.6 kmh SE 3.1 mph5.0 kmh 29.95 in1014.2 mb 0.01 in0.3 mm 0.00 in0.0 mm 0.01 in0.3 mm
01:49 AM 65.1°F18.4°C 61.9°F16.6°C 89% 1.1 mph S1.8 kmh S 5.4 mph8.7 kmh 29.95 in1014.2 mb 0.01 in0.3 mm 0.00 in0.0 mm 0.01 in0.3 mm
01:44 AM 65.1°F18.4°C 61.9°F16.6°C 89% 2.9 mph S4.7 kmh S 6.3 mph10.1 kmh 29.95 in1014.2 mb 0.01 in0.3 mm 0.00 in0.0 mm 0.01 in0.3 mm
01:39 AM 65.5°F18.6°C 62.2°F16.8°C 89% 3.1 mph S5.0 kmh S 5.4 mph8.7 kmh 29.95 in1014.2 mb 0.01 in0.3 mm 0.00 in0.0 mm 0.01 in0.3 mm
01:34 AM 65.5°F18.6°C 61.9°F16.6°C 88% 2.9 mph S4.7 kmh S 5.4 mph8.7 kmh 29.95 in1014.2 mb 0.01 in0.3 mm 0.00 in0.0 mm 0.01 in0.3 mm
01:29 AM 65.7°F18.7°C 62.1°F16.7°C 88% 1.3 mph SE2.1 kmh SE 5.4 mph8.7 kmh 29.95 in1014.2 mb 0.01 in0.3 mm 0.12 in3.0 mm 0.01 in0.3 mm
01:24 AM 65.7°F18.7°C 61.7°F16.5°C 87% 2.9 mph SSW4.7 kmh SSW 6.3 mph10.1 kmh 29.95 in1014.2 mb 0.00 in0.0 mm 0.00 in0.0 mm 0.00 in0.0 mm
01:19 AM 65.7°F18.7°C 61.7°F16.5°C 87% 3.8 mph S6.1 kmh S 7.4 mph11.9 kmh 29.95 in1014.2 mb 0.00 in0.0 mm 0.00 in0.0 mm 0.00 in0.0 mm
01:14 AM 65.7°F18.7°C 61.7°F16.5°C 87% 5.8 mph S9.3 kmh S 8.5 mph13.7 kmh 29.94 in1013.9 mb 0.00 in0.0 mm 0.00 in0.0 mm 0.00 in0.0 mm
01:09 AM 65.7°F18.7°C 61.3°F16.3°C 86% 4.0 mph S6.4 kmh S 9.6 mph15.4 kmh 29.94 in1013.9 mb 0.00 in0.0 mm 0.00 in0.0 mm 0.00 in0.0 mm
01:04 AM 65.8°F18.8°C 61.9°F16.6°C 87% 4.5 mph S7.2 kmh S 8.5 mph13.7 kmh 29.94 in1013.9 mb 0.00 in0.0 mm 0.00 in0.0 mm 0.00 in0.0 mm
12:59 AM 65.8°F18.8°C 61.5°F16.4°C 86% 4.7 mph S7.6 kmh S 9.6 mph15.4 kmh 29.94 in1013.9 mb 0.00 in0.0 mm 0.00 in0.0 mm 0.00 in0.0 mm
12:54 AM 65.8°F18.8°C 61.5°F16.4°C 86% 4.3 mph SSE6.9 kmh SSE 10.5 mph16.9 kmh 29.94 in1013.9 mb 0.00 in0.0 mm 0.00 in0.0 mm 0.00 in0.0 mm
12:49 AM 65.8°F18.8°C 61.5°F16.4°C 86% 3.8 mph SE6.1 kmh SE 8.5 mph13.7 kmh 29.94 in1013.9 mb 0.00 in0.0 mm 0.00 in0.0 mm 0.00 in0.0 mm
12:44 AM 65.8°F18.8°C 61.5°F16.4°C 86% 3.4 mph SSE5.5 kmh SSE 8.5 mph13.7 kmh 29.94 in1013.9 mb 0.00 in0.0 mm 0.00 in0.0 mm 0.00 in0.0 mm
12:39 AM 65.8°F18.8°C 61.5°F16.4°C 86% 4.9 mph SSW7.9 kmh SSW 10.5 mph16.9 kmh 29.94 in1013.9 mb 0.00 in0.0 mm 0.00 in0.0 mm 0.00 in0.0 mm
12:34 AM 65.8°F18.8°C 61.5°F16.4°C 86% 5.1 mph S8.2 kmh S 9.6 mph15.4 kmh 29.95 in1014.2 mb 0.00 in0.0 mm 0.00 in0.0 mm 0.00 in0.0 mm
12:29 AM 65.7°F18.7°C 61.3°F16.3°C 86% 3.8 mph SSW6.1 kmh SSW 8.5 mph13.7 kmh 29.95 in1014.2 mb 0.00 in0.0 mm 0.00 in0.0 mm 0.00 in0.0 mm
12:24 AM 65.7°F18.7°C 61.7°F16.5°C 87% 3.4 mph SW5.5 kmh SW 8.5 mph13.7 kmh 29.94 in1013.9 mb 0.00 in0.0 mm 0.00 in0.0 mm 0.00 in0.0 mm
12:19 AM 65.7°F18.7°C 61.7°F16.5°C 87% 5.1 mph S8.2 kmh S 9.6 mph15.4 kmh 29.94 in1013.9 mb 0.00 in0.0 mm 0.00 in0.0 mm 0.00 in0.0 mm
12:14 AM 65.5°F18.6°C 61.5°F16.4°C 87% 4.0 mph S6.4 kmh S 7.4 mph11.9 kmh 29.94 in1013.9 mb 0.00 in0.0 mm 0.00 in0.0 mm 0.00 in0.0 mm
12:09 AM 65.3°F18.5°C 61.7°F16.5°C 88% 6.3 mph S10.1 kmh S 8.5 mph13.7 kmh 29.94 in1013.9 mb 0.00 in0.0 mm 0.00 in0.0 mm 0.00 in0.0 mm
12:04 AM 65.1°F18.4°C 61.5°F16.4°C 88% 5.1 mph SSE8.2 kmh SSE 10.5 mph16.9 kmh 29.94 in1013.9 mb 0.00 in0.0 mm 0.00 in0.0 mm 0.00 in0.0 mm